Terminal Aerodrome Forecast
Issued by NWS

Current Version | Previous Version | Text Only | Print | Product List | Glossary On
Versions: 1 2 3 4 5 6 7 8 9 10 11 12 13 14 15 16 17 18 19 20 21 22 23 24 25 26 27 28 29 30 31 32 33
000
FTUS46 KMTR 270500
TAFSFO
TAF
KSFO 270525Z 2706/2812 26007KT P6SM OVC012
     FM272000 29012KT P6SM FEW012 BKN024
     FM272200 29017G22KT P6SM SCT012
     FM280300 29009KT P6SM SCT010 BKN020=

USA.gov is the U.S. government's official web portal to all federal, state and local government web resources and services.